sensor_id;sensor_type;location;lat;lon;timestamp;P1;durP1;ratioP1;P2;durP2;ratioP2
55290;SDS011;41155;39.768;2.712;2023-04-29T00:00:03;12.57;;;4.75;;
55290;SDS011;41155;39.768;2.712;2023-04-29T00:02:31;8.93;;;4.60;;
55290;SDS011;41155;39.768;2.712;2023-04-29T00:04:57;19.38;;;4.32;;
55290;SDS011;41155;39.768;2.712;2023-04-29T00:07:22;7.47;;;4.15;;
55290;SDS011;41155;39.768;2.712;2023-04-29T00:09:48;9.43;;;4.03;;
55290;SDS011;41155;39.768;2.712;2023-04-29T00:12:13;8.13;;;4.22;;
55290;SDS011;41155;39.768;2.712;2023-04-29T00:14:39;10.27;;;3.83;;
55290;SDS011;41155;39.768;2.712;2023-04-29T00:17:05;9.90;;;4.30;;
55290;SDS011;41155;39.768;2.712;2023-04-29T00:19:30;8.48;;;3.97;;
55290;SDS011;41155;39.768;2.712;2023-04-29T00:21:56;11.93;;;3.90;;
55290;SDS011;41155;39.768;2.712;2023-04-29T00:24:21;13.88;;;4.03;;
55290;SDS011;41155;39.768;2.712;2023-04-29T00:26:47;10.43;;;4.07;;
55290;SDS011;41155;39.768;2.712;2023-04-29T00:29:12;9.23;;;4.47;;
55290;SDS011;41155;39.768;2.712;2023-04-29T00:31:38;4.88;;;3.63;;
55290;SDS011;41155;39.768;2.712;2023-04-29T00:34:03;7.05;;;3.95;;
55290;SDS011;41155;39.768;2.712;2023-04-29T00:36:29;11.07;;;5.40;;
55290;SDS011;41155;39.768;2.712;2023-04-29T00:38:56;18.40;;;6.60;;
55290;SDS011;41155;39.768;2.712;2023-04-29T00:41:22;14.05;;;4.80;;
55290;SDS011;41155;39.768;2.712;2023-04-29T00:43:48;11.07;;;4.22;;
55290;SDS011;41155;39.768;2.712;2023-04-29T00:46:14;11.45;;;3.83;;
55290;SDS011;41155;39.768;2.712;2023-04-29T00:48:39;8.32;;;4.78;;
55290;SDS011;41155;39.768;2.712;2023-04-29T00:51:05;9.13;;;4.05;;
55290;SDS011;41155;39.768;2.712;2023-04-29T00:53:32;9.70;;;4.30;;
55290;SDS011;41155;39.768;2.712;2023-04-29T00:55:59;9.88;;;4.45;;
55290;SDS011;41155;39.768;2.712;2023-04-29T00:58:26;6.75;;;4.03;;
55290;SDS011;41155;39.768;2.712;2023-04-29T01:00:58;10.48;;;4.60;;
55290;SDS011;41155;39.768;2.712;2023-04-29T01:03:24;8.98;;;3.63;;
55290;SDS011;41155;39.768;2.712;2023-04-29T01:05:53;6.97;;;3.78;;
55290;SDS011;41155;39.768;2.712;2023-04-29T01:13:49;6.22;;;3.90;;
55290;SDS011;41155;39.768;2.712;2023-04-29T01:19:49;7.55;;;4.43;;
55290;SDS011;41155;39.768;2.712;2023-04-29T01:22:04;7.70;;;3.75;;
55290;SDS011;41155;39.768;2.712;2023-04-29T01:24:30;12.38;;;4.22;;
55290;SDS011;41155;39.768;2.712;2023-04-29T01:26:56;10.02;;;3.95;;
55290;SDS011;41155;39.768;2.712;2023-04-29T01:29:34;8.52;;;3.90;;
55290;SDS011;41155;39.768;2.712;2023-04-29T01:35:27;10.48;;;3.88;;
55290;SDS011;41155;39.768;2.712;2023-04-29T01:41:11;9.35;;;3.63;;
55290;SDS011;41155;39.768;2.712;2023-04-29T01:43:39;5.75;;;3.25;;
55290;SDS011;41155;39.768;2.712;2023-04-29T01:46:07;12.80;;;3.85;;
55290;SDS011;41155;39.768;2.712;2023-04-29T01:48:34;13.88;;;3.97;;
55290;SDS011;41155;39.768;2.712;2023-04-29T01:51:00;7.88;;;3.72;;
55290;SDS011;41155;39.768;2.712;2023-04-29T01:53:26;9.35;;;3.90;;
55290;SDS011;41155;39.768;2.712;2023-04-29T01:55:51;9.57;;;4.13;;
55290;SDS011;41155;39.768;2.712;2023-04-29T01:58:17;9.70;;;3.50;;
55290;SDS011;41155;39.768;2.712;2023-04-29T02:00:42;8.27;;;3.55;;
55290;SDS011;41155;39.768;2.712;2023-04-29T02:03:08;6.22;;;2.92;;
55290;SDS011;41155;39.768;2.712;2023-04-29T02:05:34;8.73;;;3.47;;
55290;SDS011;41155;39.768;2.712;2023-04-29T02:08:00;10.80;;;3.78;;
55290;SDS011;41155;39.768;2.712;2023-04-29T02:10:25;11.57;;;4.38;;
55290;SDS011;41155;39.768;2.712;2023-04-29T02:12:52;10.77;;;3.83;;
55290;SDS011;41155;39.768;2.712;2023-04-29T02:15:18;5.68;;;3.58;;
55290;SDS011;41155;39.768;2.712;2023-04-29T02:17:44;11.23;;;4.15;;
55290;SDS011;41155;39.768;2.712;2023-04-29T02:20:10;7.18;;;3.30;;
55290;SDS011;41155;39.768;2.712;2023-04-29T02:22:36;7.38;;;3.95;;
55290;SDS011;41155;39.768;2.712;2023-04-29T02:25:02;12.80;;;4.10;;
55290;SDS011;41155;39.768;2.712;2023-04-29T02:27:27;11.98;;;4.03;;
55290;SDS011;41155;39.768;2.712;2023-04-29T02:29:53;9.68;;;4.68;;
55290;SDS011;41155;39.768;2.712;2023-04-29T02:32:18;6.40;;;3.90;;
55290;SDS011;41155;39.768;2.712;2023-04-29T02:34:44;4.88;;;3.72;;
55290;SDS011;41155;39.768;2.712;2023-04-29T02:37:10;20.98;;;4.00;;
55290;SDS011;41155;39.768;2.712;2023-04-29T02:39:36;9.32;;;3.67;;
55290;SDS011;41155;39.768;2.712;2023-04-29T02:42:02;11.57;;;3.22;;
55290;SDS011;41155;39.768;2.712;2023-04-29T02:44:28;17.75;;;3.83;;
55290;SDS011;41155;39.768;2.712;2023-04-29T02:46:54;14.82;;;3.67;;
55290;SDS011;41155;39.768;2.712;2023-04-29T02:49:20;9.40;;;3.40;;
55290;SDS011;41155;39.768;2.712;2023-04-29T02:51:45;13.10;;;3.90;;
55290;SDS011;41155;39.768;2.712;2023-04-29T02:54:13;7.22;;;3.55;;
55290;SDS011;41155;39.768;2.712;2023-04-29T02:56:39;6.50;;;3.20;;
55290;SDS011;41155;39.768;2.712;2023-04-29T02:59:05;8.70;;;3.58;;
55290;SDS011;41155;39.768;2.712;2023-04-29T03:01:30;12.38;;;3.42;;
55290;SDS011;41155;39.768;2.712;2023-04-29T03:03:56;9.00;;;3.67;;
55290;SDS011;41155;39.768;2.712;2023-04-29T03:06:22;7.78;;;3.70;;
55290;SDS011;41155;39.768;2.712;2023-04-29T03:08:47;5.55;;;3.00;;
55290;SDS011;41155;39.768;2.712;2023-04-29T03:11:13;5.35;;;2.80;;
55290;SDS011;41155;39.768;2.712;2023-04-29T03:13:38;5.03;;;3.47;;
55290;SDS011;41155;39.768;2.712;2023-04-29T03:16:04;18.35;;;3.40;;
55290;SDS011;41155;39.768;2.712;2023-04-29T03:18:30;10.52;;;3.53;;
55290;SDS011;41155;39.768;2.712;2023-04-29T03:20:56;13.45;;;4.25;;
55290;SDS011;41155;39.768;2.712;2023-04-29T03:23:22;7.75;;;4.10;;
55290;SDS011;41155;39.768;2.712;2023-04-29T03:25:48;9.05;;;3.40;;
55290;SDS011;41155;39.768;2.712;2023-04-29T03:28:14;18.35;;;3.38;;
55290;SDS011;41155;39.768;2.712;2023-04-29T03:30:39;11.50;;;3.05;;
55290;SDS011;41155;39.768;2.712;2023-04-29T03:33:05;4.07;;;2.90;;
55290;SDS011;41155;39.768;2.712;2023-04-29T03:35:30;8.02;;;3.30;;
55290;SDS011;41155;39.768;2.712;2023-04-29T03:37:56;5.55;;;3.63;;
55290;SDS011;41155;39.768;2.712;2023-04-29T03:40:21;6.80;;;3.10;;
55290;SDS011;41155;39.768;2.712;2023-04-29T03:42:47;4.53;;;2.97;;
55290;SDS011;41155;39.768;2.712;2023-04-29T03:45:12;8.75;;;3.15;;
55290;SDS011;41155;39.768;2.712;2023-04-29T03:47:38;6.63;;;3.50;;
55290;SDS011;41155;39.768;2.712;2023-04-29T03:50:04;5.28;;;3.05;;
55290;SDS011;41155;39.768;2.712;2023-04-29T03:52:31;15.50;;;3.45;;
55290;SDS011;41155;39.768;2.712;2023-04-29T03:54:56;11.18;;;3.72;;
55290;SDS011;41155;39.768;2.712;2023-04-29T03:57:22;8.27;;;3.00;;
55290;SDS011;41155;39.768;2.712;2023-04-29T03:59:47;14.05;;;2.90;;
55290;SDS011;41155;39.768;2.712;2023-04-29T04:02:14;5.88;;;3.00;;
55290;SDS011;41155;39.768;2.712;2023-04-29T04:04:40;10.85;;;3.28;;
55290;SDS011;41155;39.768;2.712;2023-04-29T04:07:06;10.80;;;2.80;;
55290;SDS011;41155;39.768;2.712;2023-04-29T04:09:31;9.48;;;3.78;;
55290;SDS011;41155;39.768;2.712;2023-04-29T04:11:57;5.28;;;3.55;;
55290;SDS011;41155;39.768;2.712;2023-04-29T04:14:27;7.82;;;3.05;;
55290;SDS011;41155;39.768;2.712;2023-04-29T04:16:53;3.30;;;2.90;;
55290;SDS011;41155;39.768;2.712;2023-04-29T04:19:18;7.72;;;3.47;;
55290;SDS011;41155;39.768;2.712;2023-04-29T04:21:44;5.03;;;3.15;;
55290;SDS011;41155;39.768;2.712;2023-04-29T04:24:10;7.03;;;3.50;;
55290;SDS011;41155;39.768;2.712;2023-04-29T04:26:35;17.65;;;3.78;;
55290;SDS011;41155;39.768;2.712;2023-04-29T04:29:01;5.70;;;3.97;;
55290;SDS011;41155;39.768;2.712;2023-04-29T04:31:26;10.20;;;4.22;;
55290;SDS011;41155;39.768;2.712;2023-04-29T04:33:52;4.03;;;3.08;;
55290;SDS011;41155;39.768;2.712;2023-04-29T04:36:18;4.97;;;3.13;;
55290;SDS011;41155;39.768;2.712;2023-04-29T04:38:43;8.35;;;3.97;;
55290;SDS011;41155;39.768;2.712;2023-04-29T04:41:09;6.57;;;3.70;;
55290;SDS011;41155;39.768;2.712;2023-04-29T04:43:34;6.65;;;4.45;;
55290;SDS011;41155;39.768;2.712;2023-04-29T04:46:08;11.02;;;4.85;;
55290;SDS011;41155;39.768;2.712;2023-04-29T04:48:37;6.53;;;4.63;;
55290;SDS011;41155;39.768;2.712;2023-04-29T04:51:09;7.00;;;4.18;;
55290;SDS011;41155;39.768;2.712;2023-04-29T04:53:35;11.88;;;3.85;;
55290;SDS011;41155;39.768;2.712;2023-04-29T04:56:01;5.90;;;4.00;;
55290;SDS011;41155;39.768;2.712;2023-04-29T04:58:27;5.93;;;3.70;;
55290;SDS011;41155;39.768;2.712;2023-04-29T05:00:53;9.75;;;3.95;;
55290;SDS011;41155;39.768;2.712;2023-04-29T05:03:18;6.28;;;4.10;;
55290;SDS011;41155;39.768;2.712;2023-04-29T05:05:43;9.70;;;4.05;;
55290;SDS011;41155;39.768;2.712;2023-04-29T05:08:09;6.18;;;3.75;;
55290;SDS011;41155;39.768;2.712;2023-04-29T05:10:37;10.07;;;4.28;;
55290;SDS011;41155;39.768;2.712;2023-04-29T05:13:03;13.48;;;4.13;;
55290;SDS011;41155;39.768;2.712;2023-04-29T05:15:28;16.38;;;4.65;;
55290;SDS011;41155;39.768;2.712;2023-04-29T05:17:54;16.67;;;3.58;;
55290;SDS011;41155;39.768;2.712;2023-04-29T05:20:20;17.80;;;4.15;;
55290;SDS011;41155;39.768;2.712;2023-04-29T05:22:45;8.82;;;4.03;;
55290;SDS011;41155;39.768;2.712;2023-04-29T05:25:11;12.77;;;4.28;;
55290;SDS011;41155;39.768;2.712;2023-04-29T05:27:36;14.40;;;4.05;;
55290;SDS011;41155;39.768;2.712;2023-04-29T05:30:02;19.83;;;4.75;;
55290;SDS011;41155;39.768;2.712;2023-04-29T05:32:28;11.63;;;3.90;;
55290;SDS011;41155;39.768;2.712;2023-04-29T05:34:53;8.80;;;4.60;;
55290;SDS011;41155;39.768;2.712;2023-04-29T05:37:19;23.40;;;4.50;;
55290;SDS011;41155;39.768;2.712;2023-04-29T05:39:44;12.82;;;4.30;;
55290;SDS011;41155;39.768;2.712;2023-04-29T05:42:10;9.32;;;5.25;;
55290;SDS011;41155;39.768;2.712;2023-04-29T05:44:35;15.52;;;6.65;;
55290;SDS011;41155;39.768;2.712;2023-04-29T05:47:01;13.82;;;4.65;;
55290;SDS011;41155;39.768;2.712;2023-04-29T05:49:26;10.75;;;4.35;;
55290;SDS011;41155;39.768;2.712;2023-04-29T05:51:52;13.20;;;4.38;;
55290;SDS011;41155;39.768;2.712;2023-04-29T05:54:17;19.48;;;5.00;;
55290;SDS011;41155;39.768;2.712;2023-04-29T05:56:43;20.48;;;8.95;;
55290;SDS011;41155;39.768;2.712;2023-04-29T05:59:08;19.38;;;11.10;;
55290;SDS011;41155;39.768;2.712;2023-04-29T06:01:34;18.20;;;7.70;;
55290;SDS011;41155;39.768;2.712;2023-04-29T06:03:59;14.38;;;8.43;;
55290;SDS011;41155;39.768;2.712;2023-04-29T06:06:25;14.77;;;8.13;;
55290;SDS011;41155;39.768;2.712;2023-04-29T06:08:50;27.30;;;16.02;;
55290;SDS011;41155;39.768;2.712;2023-04-29T06:11:17;15.95;;;11.43;;
55290;SDS011;41155;39.768;2.712;2023-04-29T06:13:42;16.50;;;7.97;;
55290;SDS011;41155;39.768;2.712;2023-04-29T06:16:08;6.90;;;5.75;;
55290;SDS011;41155;39.768;2.712;2023-04-29T06:18:34;5.65;;;4.32;;
55290;SDS011;41155;39.768;2.712;2023-04-29T06:21:00;12.05;;;4.68;;
55290;SDS011;41155;39.768;2.712;2023-04-29T06:23:25;9.63;;;4.32;;
55290;SDS011;41155;39.768;2.712;2023-04-29T06:25:51;15.05;;;10.57;;
55290;SDS011;41155;39.768;2.712;2023-04-29T06:28:17;37.63;;;23.05;;
55290;SDS011;41155;39.768;2.712;2023-04-29T06:30:42;29.42;;;15.35;;
55290;SDS011;41155;39.768;2.712;2023-04-29T06:33:09;19.83;;;9.32;;
55290;SDS011;41155;39.768;2.712;2023-04-29T06:35:37;17.05;;;7.65;;
55290;SDS011;41155;39.768;2.712;2023-04-29T06:38:05;21.52;;;8.50;;
55290;SDS011;41155;39.768;2.712;2023-04-29T06:40:32;23.50;;;8.27;;
55290;SDS011;41155;39.768;2.712;2023-04-29T06:42:57;13.32;;;8.38;;
55290;SDS011;41155;39.768;2.712;2023-04-29T06:45:23;12.13;;;7.78;;
55290;SDS011;41155;39.768;2.712;2023-04-29T06:47:49;32.75;;;15.00;;
55290;SDS011;41155;39.768;2.712;2023-04-29T06:50:15;30.35;;;15.90;;
55290;SDS011;41155;39.768;2.712;2023-04-29T06:52:40;25.80;;;12.82;;
55290;SDS011;41155;39.768;2.712;2023-04-29T06:55:06;33.97;;;11.93;;
55290;SDS011;41155;39.768;2.712;2023-04-29T06:57:32;23.90;;;10.45;;
55290;SDS011;41155;39.768;2.712;2023-04-29T06:59:58;20.35;;;13.70;;
55290;SDS011;41155;39.768;2.712;2023-04-29T07:02:23;25.38;;;14.02;;
55290;SDS011;41155;39.768;2.712;2023-04-29T07:04:49;30.45;;;13.50;;
55290;SDS011;41155;39.768;2.712;2023-04-29T07:07:15;21.90;;;13.23;;
55290;SDS011;41155;39.768;2.712;2023-04-29T07:09:40;19.48;;;12.80;;
55290;SDS011;41155;39.768;2.712;2023-04-29T07:12:06;24.98;;;12.98;;
55290;SDS011;41155;39.768;2.712;2023-04-29T07:14:31;22.80;;;13.30;;
55290;SDS011;41155;39.768;2.712;2023-04-29T07:16:57;28.65;;;17.70;;
55290;SDS011;41155;39.768;2.712;2023-04-29T07:19:22;23.60;;;16.08;;
55290;SDS011;41155;39.768;2.712;2023-04-29T07:21:48;36.85;;;14.75;;
55290;SDS011;41155;39.768;2.712;2023-04-29T07:24:13;25.40;;;16.58;;
55290;SDS011;41155;39.768;2.712;2023-04-29T07:26:39;26.20;;;14.73;;
55290;SDS011;41155;39.768;2.712;2023-04-29T07:29:04;34.05;;;15.02;;
55290;SDS011;41155;39.768;2.712;2023-04-29T07:31:30;28.45;;;16.30;;
55290;SDS011;41155;39.768;2.712;2023-04-29T07:33:55;31.63;;;17.42;;
55290;SDS011;41155;39.768;2.712;2023-04-29T07:36:21;26.80;;;15.30;;
55290;SDS011;41155;39.768;2.712;2023-04-29T07:38:46;27.17;;;16.65;;
55290;SDS011;41155;39.768;2.712;2023-04-29T07:41:12;36.50;;;17.48;;
55290;SDS011;41155;39.768;2.712;2023-04-29T07:43:37;26.13;;;19.52;;
55290;SDS011;41155;39.768;2.712;2023-04-29T07:46:03;52.20;;;24.05;;
55290;SDS011;41155;39.768;2.712;2023-04-29T07:48:28;42.28;;;19.27;;
55290;SDS011;41155;39.768;2.712;2023-04-29T07:50:54;20.98;;;15.50;;
55290;SDS011;41155;39.768;2.712;2023-04-29T07:53:20;32.22;;;18.45;;
55290;SDS011;41155;39.768;2.712;2023-04-29T07:55:45;27.05;;;16.08;;
55290;SDS011;41155;39.768;2.712;2023-04-29T07:58:11;38.00;;;18.60;;
55290;SDS011;41155;39.768;2.712;2023-04-29T08:00:37;32.15;;;20.20;;
55290;SDS011;41155;39.768;2.712;2023-04-29T08:03:02;30.98;;;19.95;;
55290;SDS011;41155;39.768;2.712;2023-04-29T08:05:28;48.72;;;30.35;;
55290;SDS011;41155;39.768;2.712;2023-04-29T08:07:54;148.80;;;88.05;;
55290;SDS011;41155;39.768;2.712;2023-04-29T08:10:20;154.15;;;88.78;;
55290;SDS011;41155;39.768;2.712;2023-04-29T08:12:47;140.98;;;96.50;;
55290;SDS011;41155;39.768;2.712;2023-04-29T08:15:13;70.45;;;42.00;;
55290;SDS011;41155;39.768;2.712;2023-04-29T08:17:39;60.17;;;36.00;;
55290;SDS011;41155;39.768;2.712;2023-04-29T08:20:05;43.70;;;24.33;;
55290;SDS011;41155;39.768;2.712;2023-04-29T08:22:32;44.50;;;25.48;;
55290;SDS011;41155;39.768;2.712;2023-04-29T08:24:57;60.25;;;30.42;;
55290;SDS011;41155;39.768;2.712;2023-04-29T08:27:23;49.00;;;30.05;;
55290;SDS011;41155;39.768;2.712;2023-04-29T08:29:48;53.83;;;28.92;;
55290;SDS011;41155;39.768;2.712;2023-04-29T08:32:15;58.28;;;29.60;;
55290;SDS011;41155;39.768;2.712;2023-04-29T08:34:40;39.55;;;26.58;;
55290;SDS011;41155;39.768;2.712;2023-04-29T08:37:06;42.35;;;26.95;;
55290;SDS011;41155;39.768;2.712;2023-04-29T08:39:31;37.20;;;22.75;;
55290;SDS011;41155;39.768;2.712;2023-04-29T08:41:57;32.25;;;20.45;;
55290;SDS011;41155;39.768;2.712;2023-04-29T08:44:26;53.42;;;22.88;;
55290;SDS011;41155;39.768;2.712;2023-04-29T08:46:52;51.90;;;25.33;;
55290;SDS011;41155;39.768;2.712;2023-04-29T08:49:19;47.15;;;25.73;;
55290;SDS011;41155;39.768;2.712;2023-04-29T08:51:47;55.47;;;25.85;;
55290;SDS011;41155;39.768;2.712;2023-04-29T08:54:15;24.75;;;16.05;;
55290;SDS011;41155;39.768;2.712;2023-04-29T08:56:43;27.70;;;17.27;;
55290;SDS011;41155;39.768;2.712;2023-04-29T08:59:10;32.13;;;17.52;;
55290;SDS011;41155;39.768;2.712;2023-04-29T09:01:38;46.40;;;23.70;;
55290;SDS011;41155;39.768;2.712;2023-04-29T09:06:54;36.15;;;21.50;;
55290;SDS011;41155;39.768;2.712;2023-04-29T09:09:23;90.60;;;46.95;;
55290;SDS011;41155;39.768;2.712;2023-04-29T09:11:49;59.50;;;29.80;;
55290;SDS011;41155;39.768;2.712;2023-04-29T09:14:14;100.32;;;54.53;;
55290;SDS011;41155;39.768;2.712;2023-04-29T09:16:40;86.50;;;47.97;;
55290;SDS011;41155;39.768;2.712;2023-04-29T09:19:06;76.97;;;44.38;;
55290;SDS011;41155;39.768;2.712;2023-04-29T09:21:31;101.32;;;46.67;;
55290;SDS011;41155;39.768;2.712;2023-04-29T09:23:58;83.20;;;37.30;;
55290;SDS011;41155;39.768;2.712;2023-04-29T09:26:25;82.88;;;42.45;;
55290;SDS011;41155;39.768;2.712;2023-04-29T09:29:07;55.00;;;32.42;;
55290;SDS011;41155;39.768;2.712;2023-04-29T09:31:36;60.15;;;32.35;;
55290;SDS011;41155;39.768;2.712;2023-04-29T09:34:03;52.25;;;28.63;;
55290;SDS011;41155;39.768;2.712;2023-04-29T09:36:42;53.20;;;30.88;;
55290;SDS011;41155;39.768;2.712;2023-04-29T09:39:22;50.77;;;30.37;;
55290;SDS011;41155;39.768;2.712;2023-04-29T09:44:14;55.35;;;29.17;;
55290;SDS011;41155;39.768;2.712;2023-04-29T09:46:40;49.20;;;21.52;;
55290;SDS011;41155;39.768;2.712;2023-04-29T09:49:20;47.38;;;22.52;;
55290;SDS011;41155;39.768;2.712;2023-04-29T09:51:51;30.13;;;20.02;;
55290;SDS011;41155;39.768;2.712;2023-04-29T09:54:21;49.83;;;23.33;;
55290;SDS011;41155;39.768;2.712;2023-04-29T09:56:48;40.85;;;20.35;;
55290;SDS011;41155;39.768;2.712;2023-04-29T09:59:16;25.00;;;12.55;;
55290;SDS011;41155;39.768;2.712;2023-04-29T10:01:42;37.78;;;20.70;;
55290;SDS011;41155;39.768;2.712;2023-04-29T10:04:07;37.00;;;18.45;;
55290;SDS011;41155;39.768;2.712;2023-04-29T10:06:36;48.20;;;21.20;;
55290;SDS011;41155;39.768;2.712;2023-04-29T10:09:05;33.05;;;17.20;;
55290;SDS011;41155;39.768;2.712;2023-04-29T10:11:32;33.15;;;15.48;;
55290;SDS011;41155;39.768;2.712;2023-04-29T10:13:59;25.85;;;14.65;;
55290;SDS011;41155;39.768;2.712;2023-04-29T10:16:28;32.00;;;14.90;;
55290;SDS011;41155;39.768;2.712;2023-04-29T10:18:55;57.50;;;16.75;;
55290;SDS011;41155;39.768;2.712;2023-04-29T10:21:28;18.77;;;10.67;;
55290;SDS011;41155;39.768;2.712;2023-04-29T10:23:58;13.18;;;6.38;;
55290;SDS011;41155;39.768;2.712;2023-04-29T10:26:29;10.82;;;5.93;;
55290;SDS011;41155;39.768;2.712;2023-04-29T10:28:56;14.05;;;4.70;;
55290;SDS011;41155;39.768;2.712;2023-04-29T10:31:26;10.35;;;4.88;;
55290;SDS011;41155;39.768;2.712;2023-04-29T10:33:53;17.85;;;4.00;;
55290;SDS011;41155;39.768;2.712;2023-04-29T10:36:21;15.32;;;4.30;;
55290;SDS011;41155;39.768;2.712;2023-04-29T10:38:50;17.63;;;4.00;;
55290;SDS011;41155;39.768;2.712;2023-04-29T10:41:27;11.50;;;4.10;;
55290;SDS011;41155;39.768;2.712;2023-04-29T10:43:58;13.07;;;3.90;;
55290;SDS011;41155;39.768;2.712;2023-04-29T10:46:24;13.45;;;3.08;;
55290;SDS011;41155;39.768;2.712;2023-04-29T10:49:00;11.45;;;3.47;;
55290;SDS011;41155;39.768;2.712;2023-04-29T10:54:07;10.38;;;3.53;;
55290;SDS011;41155;39.768;2.712;2023-04-29T10:56:38;13.82;;;3.33;;
55290;SDS011;41155;39.768;2.712;2023-04-29T10:59:04;14.70;;;3.58;;
55290;SDS011;41155;39.768;2.712;2023-04-29T11:04:20;6.30;;;3.38;;
55290;SDS011;41155;39.768;2.712;2023-04-29T11:06:53;8.32;;;3.72;;
55290;SDS011;41155;39.768;2.712;2023-04-29T11:09:23;6.72;;;2.97;;
55290;SDS011;41155;39.768;2.712;2023-04-29T11:11:57;9.40;;;3.00;;
55290;SDS011;41155;39.768;2.712;2023-04-29T11:14:41;13.77;;;3.72;;
55290;SDS011;41155;39.768;2.712;2023-04-29T11:17:08;11.40;;;3.83;;
55290;SDS011;41155;39.768;2.712;2023-04-29T11:19:40;20.25;;;3.65;;
55290;SDS011;41155;39.768;2.712;2023-04-29T11:22:13;5.17;;;3.47;;
55290;SDS011;41155;39.768;2.712;2023-04-29T11:24:55;9.98;;;4.20;;
55290;SDS011;41155;39.768;2.712;2023-04-29T11:27:28;14.00;;;3.75;;
55290;SDS011;41155;39.768;2.712;2023-04-29T11:32:25;11.05;;;4.10;;
55290;SDS011;41155;39.768;2.712;2023-04-29T11:35:16;13.63;;;5.50;;
55290;SDS011;41155;39.768;2.712;2023-04-29T11:37:44;15.38;;;5.15;;
55290;SDS011;41155;39.768;2.712;2023-04-29T11:40:11;8.73;;;3.83;;
55290;SDS011;41155;39.768;2.712;2023-04-29T11:42:42;16.08;;;4.43;;
55290;SDS011;41155;39.768;2.712;2023-04-29T11:45:09;9.30;;;4.32;;
55290;SDS011;41155;39.768;2.712;2023-04-29T11:47:36;15.05;;;3.95;;
55290;SDS011;41155;39.768;2.712;2023-04-29T11:50:05;11.50;;;4.20;;
55290;SDS011;41155;39.768;2.712;2023-04-29T11:52:34;8.95;;;4.00;;
55290;SDS011;41155;39.768;2.712;2023-04-29T11:55:01;15.88;;;4.10;;
55290;SDS011;41155;39.768;2.712;2023-04-29T11:57:27;11.27;;;4.22;;
55290;SDS011;41155;39.768;2.712;2023-04-29T11:59:53;20.58;;;4.18;;
55290;SDS011;41155;39.768;2.712;2023-04-29T12:02:22;11.02;;;3.72;;
55290;SDS011;41155;39.768;2.712;2023-04-29T12:04:58;26.05;;;4.43;;
55290;SDS011;41155;39.768;2.712;2023-04-29T12:07:26;13.70;;;4.50;;
55290;SDS011;41155;39.768;2.712;2023-04-29T12:09:53;13.10;;;3.45;;
55290;SDS011;41155;39.768;2.712;2023-04-29T12:12:20;8.07;;;3.80;;
55290;SDS011;41155;39.768;2.712;2023-04-29T12:14:46;15.75;;;3.60;;
55290;SDS011;41155;39.768;2.712;2023-04-29T12:17:12;12.98;;;3.60;;
55290;SDS011;41155;39.768;2.712;2023-04-29T12:19:38;15.23;;;4.82;;
55290;SDS011;41155;39.768;2.712;2023-04-29T12:22:05;17.75;;;4.30;;
55290;SDS011;41155;39.768;2.712;2023-04-29T12:24:37;13.48;;;4.03;;
55290;SDS011;41155;39.768;2.712;2023-04-29T12:27:06;8.70;;;3.55;;
55290;SDS011;41155;39.768;2.712;2023-04-29T12:29:36;12.30;;;5.13;;
55290;SDS011;41155;39.768;2.712;2023-04-29T12:32:03;12.63;;;5.88;;
55290;SDS011;41155;39.768;2.712;2023-04-29T12:34:29;18.40;;;6.00;;
55290;SDS011;41155;39.768;2.712;2023-04-29T12:36:57;12.02;;;5.15;;
55290;SDS011;41155;39.768;2.712;2023-04-29T12:39:24;12.32;;;4.95;;
55290;SDS011;41155;39.768;2.712;2023-04-29T12:41:54;15.52;;;4.00;;
55290;SDS011;41155;39.768;2.712;2023-04-29T12:44:22;7.63;;;4.45;;
55290;SDS011;41155;39.768;2.712;2023-04-29T12:46:47;12.45;;;4.50;;
55290;SDS011;41155;39.768;2.712;2023-04-29T12:49:13;14.55;;;4.80;;
55290;SDS011;41155;39.768;2.712;2023-04-29T12:51:38;11.65;;;4.07;;
55290;SDS011;41155;39.768;2.712;2023-04-29T12:54:04;13.85;;;4.95;;
55290;SDS011;41155;39.768;2.712;2023-04-29T12:56:31;10.05;;;4.22;;
55290;SDS011;41155;39.768;2.712;2023-04-29T12:59:07;13.63;;;3.80;;
55290;SDS011;41155;39.768;2.712;2023-04-29T13:01:37;15.45;;;4.30;;
55290;SDS011;41155;39.768;2.712;2023-04-29T13:04:03;16.10;;;4.13;;
55290;SDS011;41155;39.768;2.712;2023-04-29T13:06:32;16.65;;;4.40;;
55290;SDS011;41155;39.768;2.712;2023-04-29T13:08:58;12.50;;;3.65;;
55290;SDS011;41155;39.768;2.712;2023-04-29T13:11:24;17.40;;;4.55;;
55290;SDS011;41155;39.768;2.712;2023-04-29T13:13:50;17.88;;;4.35;;
55290;SDS011;41155;39.768;2.712;2023-04-29T13:16:15;14.93;;;5.07;;
55290;SDS011;41155;39.768;2.712;2023-04-29T13:18:41;18.85;;;4.20;;
55290;SDS011;41155;39.768;2.712;2023-04-29T13:21:06;18.60;;;5.00;;
55290;SDS011;41155;39.768;2.712;2023-04-29T13:23:32;19.02;;;4.53;;
55290;SDS011;41155;39.768;2.712;2023-04-29T13:25:57;16.48;;;4.35;;
55290;SDS011;41155;39.768;2.712;2023-04-29T13:28:23;13.02;;;4.15;;
55290;SDS011;41155;39.768;2.712;2023-04-29T13:30:48;10.93;;;4.03;;
55290;SDS011;41155;39.768;2.712;2023-04-29T13:33:14;17.55;;;5.13;;
55290;SDS011;41155;39.768;2.712;2023-04-29T13:35:40;10.82;;;3.58;;
55290;SDS011;41155;39.768;2.712;2023-04-29T13:38:06;13.98;;;4.22;;
55290;SDS011;41155;39.768;2.712;2023-04-29T13:40:32;9.90;;;3.85;;
55290;SDS011;41155;39.768;2.712;2023-04-29T13:42:57;12.90;;;5.22;;
55290;SDS011;41155;39.768;2.712;2023-04-29T13:45:23;12.15;;;4.55;;
55290;SDS011;41155;39.768;2.712;2023-04-29T13:47:48;16.63;;;4.53;;
55290;SDS011;41155;39.768;2.712;2023-04-29T13:50:14;14.02;;;4.63;;
55290;SDS011;41155;39.768;2.712;2023-04-29T13:52:40;17.52;;;4.25;;
55290;SDS011;41155;39.768;2.712;2023-04-29T13:55:05;18.73;;;4.70;;
55290;SDS011;41155;39.768;2.712;2023-04-29T13:57:31;15.48;;;3.75;;
55290;SDS011;41155;39.768;2.712;2023-04-29T13:59:58;17.17;;;4.00;;
55290;SDS011;41155;39.768;2.712;2023-04-29T14:02:23;19.50;;;4.10;;
55290;SDS011;41155;39.768;2.712;2023-04-29T14:04:49;12.55;;;4.15;;
55290;SDS011;41155;39.768;2.712;2023-04-29T14:07:14;15.40;;;5.05;;
55290;SDS011;41155;39.768;2.712;2023-04-29T14:09:40;13.02;;;4.97;;
55290;SDS011;41155;39.768;2.712;2023-04-29T14:12:05;14.30;;;4.53;;
55290;SDS011;41155;39.768;2.712;2023-04-29T14:14:31;19.85;;;4.18;;
55290;SDS011;41155;39.768;2.712;2023-04-29T14:16:56;15.93;;;4.28;;
55290;SDS011;41155;39.768;2.712;2023-04-29T14:19:22;20.15;;;5.32;;
55290;SDS011;41155;39.768;2.712;2023-04-29T14:21:47;19.40;;;4.47;;
55290;SDS011;41155;39.768;2.712;2023-04-29T14:24:13;16.10;;;4.47;;
55290;SDS011;41155;39.768;2.712;2023-04-29T14:26:38;20.67;;;5.18;;
55290;SDS011;41155;39.768;2.712;2023-04-29T14:29:04;17.35;;;4.15;;
55290;SDS011;41155;39.768;2.712;2023-04-29T14:31:29;18.50;;;4.72;;
55290;SDS011;41155;39.768;2.712;2023-04-29T14:34:00;14.38;;;5.63;;
55290;SDS011;41155;39.768;2.712;2023-04-29T14:36:25;44.30;;;24.88;;
55290;SDS011;41155;39.768;2.712;2023-04-29T14:38:52;45.35;;;28.67;;
55290;SDS011;41155;39.768;2.712;2023-04-29T14:41:18;36.72;;;14.02;;
55290;SDS011;41155;39.768;2.712;2023-04-29T14:43:45;15.07;;;5.22;;
55290;SDS011;41155;39.768;2.712;2023-04-29T14:46:11;16.95;;;5.80;;
55290;SDS011;41155;39.768;2.712;2023-04-29T14:48:36;16.90;;;5.18;;
55290;SDS011;41155;39.768;2.712;2023-04-29T14:51:05;17.58;;;4.70;;
55290;SDS011;41155;39.768;2.712;2023-04-29T14:53:31;17.70;;;4.63;;
55290;SDS011;41155;39.768;2.712;2023-04-29T14:55:56;15.57;;;4.30;;
55290;SDS011;41155;39.768;2.712;2023-04-29T14:58:22;13.77;;;5.20;;